Time;durP1;ratioP1;P1;durP2;ratioP2;P2;SDS_P1;SDS_P2;PMS_P1;PMS_P2;Temp;Humidity;BMP_temperature;BMP_pressure;BME280_temperature;BME280_humidity;BME280_pressure;Samples;Min_cycle;Max_cycle;Signal;HPM_P1;HPM_P2
2020/12/17 00:01:15;;;;;;;19.50;7.20;;;5.70;99.90;;;;;;10346691;28;87878;-77
2020/12/17 00:06:18;;;;;;;20.33;7.60;;;5.60;99.90;;;;;;10349009;28;87851;-76
2020/12/17 00:11:22;;;;;;;18.70;6.37;;;5.60;99.90;;;;;;10349370;28;89173;-77
2020/12/17 00:16:24;;;;;;;35.43;16.80;;;5.60;99.90;;;;;;10349923;28;87361;-77
2020/12/17 00:21:27;;;;;;;65.53;33.87;;;5.60;99.90;;;;;;10348580;28;88680;-77
2020/12/17 00:26:29;;;;;;;25.97;9.97;;;5.60;99.90;;;;;;10347806;28;88225;-78
2020/12/17 00:31:30;;;;;;;57.53;30.20;;;5.70;99.90;;;;;;10345689;28;89120;-78
2020/12/17 00:36:33;;;;;;;20.37;8.47;;;5.70;99.90;;;;;;10345168;28;87443;-78
2020/12/17 00:41:36;;;;;;;23.37;8.17;;;5.70;99.90;;;;;;10338979;28;88164;-78
2020/12/17 00:46:38;;;;;;;26.60;8.03;;;5.80;99.90;;;;;;10341365;28;87441;-78
2020/12/17 00:51:46;;;;;;;26.47;8.17;;;5.70;99.90;;;;;;10346854;28;87623;-78
2020/12/17 00:56:47;;;;;;;32.57;9.73;;;5.70;99.90;;;;;;10347749;28;87832;-78
2020/12/17 01:01:49;;;;;;;23.37;8.27;;;5.80;99.90;;;;;;10337524;28;89044;-79
2020/12/17 01:06:52;;;;;;;25.30;8.93;;;5.70;99.90;;;;;;10349492;28;88681;-79
2020/12/17 01:11:54;;;;;;;21.33;7.30;;;5.70;99.90;;;;;;10346815;28;88730;-76
2020/12/17 01:16:56;;;;;;;23.90;7.67;;;5.60;99.90;;;;;;10347993;28;89617;-76
2020/12/17 01:22:00;;;;;;;22.77;7.67;;;5.60;99.90;;;;;;10345207;28;88444;-77
2020/12/17 01:27:02;;;;;;;25.20;7.97;;;5.60;99.90;;;;;;10347344;28;87637;-77
2020/12/17 01:32:04;;;;;;;33.07;12.07;;;5.60;99.90;;;;;;10347197;28;88911;-78
2020/12/17 01:37:09;;;;;;;108.17;62.90;;;5.60;99.90;;;;;;10341895;28;86915;-77
2020/12/17 01:42:11;;;;;;;35.37;13.67;;;5.60;99.90;;;;;;10339462;28;88088;-77
2020/12/17 01:47:12;;;;;;;32.27;12.20;;;5.50;99.90;;;;;;10344465;28;87856;-76
2020/12/17 01:52:15;;;;;;;20.33;7.00;;;5.50;99.90;;;;;;10342073;28;88695;-77
2020/12/17 01:57:17;;;;;;;28.37;6.83;;;5.50;99.90;;;;;;10337782;28;87840;-78
2020/12/17 02:02:19;;;;;;;20.60;8.77;;;5.50;99.90;;;;;;10341624;28;88795;-78
2020/12/17 02:07:27;;;;;;;44.53;23.30;;;5.50;99.90;;;;;;10333842;28;87563;-78
2020/12/17 02:12:42;;;;;;;143.63;102.20;;;5.50;99.90;;;;;;10347368;28;87762;-78
2020/12/17 02:17:44;;;;;;;21.53;8.60;;;5.40;99.90;;;;;;10351312;28;88028;-77
2020/12/17 02:22:47;;;;;;;168.97;95.60;;;5.40;99.90;;;;;;10352140;28;88004;-78
2020/12/17 02:27:49;;;;;;;103.67;61.20;;;5.40;99.90;;;;;;10353117;28;86702;-78
2020/12/17 02:32:51;;;;;;;42.33;24.83;;;5.40;99.90;;;;;;10344921;28;87492;-78
2020/12/17 02:37:52;;;;;;;26.07;12.87;;;5.30;99.90;;;;;;10344932;28;87963;-78
2020/12/17 02:42:55;;;;;;;20.13;7.83;;;5.30;99.90;;;;;;10347341;28;88786;-77
2020/12/17 02:47:57;;;;;;;17.27;6.30;;;5.30;99.90;;;;;;10351947;28;88653;-77
2020/12/17 02:52:58;;;;;;;29.27;8.50;;;5.30;99.90;;;;;;10352311;28;88682;-77
2020/12/17 02:58:01;;;;;;;83.30;39.67;;;5.20;99.90;;;;;;10333902;28;88810;-78
2020/12/17 03:03:03;;;;;;;116.47;59.37;;;5.20;99.90;;;;;;10326419;28;87864;-78
2020/12/17 03:08:04;;;;;;;56.07;31.17;;;5.20;99.90;;;;;;10295930;28;88899;-78
2020/12/17 03:13:07;;;;;;;53.87;27.97;;;5.20;99.90;;;;;;10306915;28;88940;-78
2020/12/17 03:18:08;;;;;;;69.47;33.30;;;5.20;99.90;;;;;;10300161;28;89067;-78
2020/12/17 03:23:10;;;;;;;63.00;27.63;;;5.10;99.90;;;;;;10291446;28;89188;-77
2020/12/17 03:28:13;;;;;;;48.27;23.57;;;5.10;99.90;;;;;;10292642;28;89185;-78
2020/12/17 03:33:14;;;;;;;289.23;177.33;;;5.10;99.90;;;;;;10289717;28;90063;-78
2020/12/17 03:38:17;;;;;;;159.03;105.93;;;5.10;99.90;;;;;;10291569;28;88977;-78
2020/12/17 03:43:19;;;;;;;233.77;194.87;;;5.10;99.90;;;;;;10290654;28;90544;-77
2020/12/17 03:48:21;;;;;;;22.37;9.43;;;5.00;99.90;;;;;;10292340;28;88908;-78
2020/12/17 03:53:23;;;;;;;19.40;8.10;;;5.00;99.90;;;;;;10295078;28;88956;-78
2020/12/17 03:58:27;;;;;;;21.27;7.40;;;4.90;99.90;;;;;;10292512;28;89788;-78
2020/12/17 04:03:29;;;;;;;17.50;7.10;;;4.80;99.90;;;;;;10295550;28;90302;-78
2020/12/17 04:08:31;;;;;;;22.33;8.00;;;4.80;99.90;;;;;;10330614;28;86925;-77
2020/12/17 04:13:33;;;;;;;22.83;7.37;;;4.80;99.90;;;;;;10343996;28;89701;-78
2020/12/17 04:18:35;;;;;;;25.40;8.70;;;4.80;99.90;;;;;;10340994;28;87697;-79
2020/12/17 04:23:36;;;;;;;18.03;6.13;;;4.70;99.90;;;;;;10344560;28;87718;-78
2020/12/17 04:28:41;;;;;;;26.57;8.13;;;4.70;99.90;;;;;;10346584;28;87626;-79
2020/12/17 04:33:43;;;;;;;26.40;9.60;;;4.80;99.90;;;;;;10348684;28;88118;-78
2020/12/17 04:38:45;;;;;;;19.60;6.67;;;4.80;99.90;;;;;;10348960;28;87647;-78
2020/12/17 04:43:48;;;;;;;21.43;7.17;;;4.70;99.90;;;;;;10342418;28;86799;-78
2020/12/17 04:48:52;;;;;;;19.00;7.23;;;4.80;99.90;;;;;;10328139;28;89211;-78
2020/12/17 04:54:01;;;;;;;20.43;6.00;;;4.70;99.90;;;;;;10348113;28;87733;-78
2020/12/17 04:59:03;;;;;;;21.73;6.77;;;4.80;99.90;;;;;;10347793;28;86321;-78
2020/12/17 05:04:08;;;;;;;11.50;3.93;;;4.80;99.90;;;;;;10302155;28;89089;-79
2020/12/17 05:09:10;;;;;;;18.17;5.40;;;4.90;99.90;;;;;;10291923;28;89004;-76
2020/12/17 05:14:13;;;;;;;24.40;6.53;;;4.80;99.90;;;;;;10287600;28;89805;-77
2020/12/17 05:19:15;;;;;;;16.90;5.50;;;4.80;99.90;;;;;;10289349;28;89052;-78
2020/12/17 05:24:20;;;;;;;17.80;6.20;;;4.80;99.90;;;;;;10292133;28;89410;-77
2020/12/17 05:29:23;;;;;;;21.67;6.90;;;4.80;99.90;;;;;;10269443;28;89394;-76
2020/12/17 05:34:24;;;;;;;16.80;5.70;;;4.80;99.90;;;;;;10292189;28;88850;-77
2020/12/17 05:39:28;;;;;;;23.20;8.30;;;4.70;99.90;;;;;;10290335;28;90039;-80
2020/12/17 05:44:33;;;;;;;19.67;5.97;;;4.60;99.90;;;;;;10275789;28;88981;-78
2020/12/17 05:49:35;;;;;;;16.83;5.03;;;4.60;99.90;;;;;;10304850;28;88340;-77
2020/12/17 05:54:37;;;;;;;23.27;7.23;;;4.60;99.90;;;;;;10297053;28;89017;-78
2020/12/17 05:59:42;;;;;;;18.37;6.90;;;4.60;99.90;;;;;;10296010;28;90141;-77
2020/12/17 06:04:46;;;;;;;14.50;6.43;;;4.60;99.90;;;;;;10295310;28;90931;-77
2020/12/17 06:10:03;;;;;;;29.20;16.03;;;4.60;99.90;;;;;;10300212;28;88876;-77
2020/12/17 06:15:06;;;;;;;25.07;8.00;;;4.60;99.90;;;;;;10296018;28;88947;-79
2020/12/17 06:20:08;;;;;;;22.37;6.77;;;4.60;99.90;;;;;;10299219;28;89383;-77
2020/12/17 06:25:14;;;;;;;55.67;31.33;;;4.60;99.90;;;;;;10295791;28;89808;-77
2020/12/17 06:30:18;;;;;;;45.10;24.93;;;4.60;99.90;;;;;;10273174;28;89255;-76
2020/12/17 06:35:30;;;;;;;16.87;7.10;;;4.50;99.90;;;;;;10296030;28;88940;-76
2020/12/17 06:40:32;;;;;;;26.50;7.70;;;4.40;99.90;;;;;;10306742;28;88286;-75
2020/12/17 06:45:35;;;;;;;22.47;8.43;;;4.40;99.90;;;;;;10294352;28;88860;-75
2020/12/17 06:50:39;;;;;;;25.30;7.20;;;4.30;99.90;;;;;;10292538;28;88751;-76
2020/12/17 06:55:44;;;;;;;21.97;6.73;;;4.30;99.90;;;;;;10289641;28;89774;-75
2020/12/17 07:00:47;;;;;;;30.40;8.90;;;4.30;99.90;;;;;;10289137;28;88519;-75
2020/12/17 07:05:49;;;;;;;24.47;7.93;;;4.30;99.90;;;;;;10274398;28;88831;-75
2020/12/17 07:10:51;;;;;;;23.60;8.23;;;4.30;99.90;;;;;;10296573;28;89076;-75
2020/12/17 07:15:54;;;;;;;17.67;6.50;;;4.30;99.90;;;;;;10297896;28;89060;-76
2020/12/17 07:21:04;;;;;;;23.90;7.87;;;4.30;99.90;;;;;;10290066;28;89355;-75
2020/12/17 07:26:10;;;;;;;33.33;9.67;;;4.30;99.90;;;;;;10301424;28;88975;-75
2020/12/17 07:31:23;;;;;;;32.23;9.07;;;4.30;99.90;;;;;;10295653;28;88782;-75
2020/12/17 07:36:44;;;;;;;31.00;8.80;;;4.30;99.90;;;;;;10310908;28;89098;-74
2020/12/17 07:41:45;;;;;;;29.00;9.27;;;4.30;99.90;;;;;;10294985;28;90435;-76
2020/12/17 07:47:18;;;;;;;34.30;10.30;;;4.40;99.90;;;;;;10293034;28;90216;-76
2020/12/17 07:52:31;;;;;;;28.17;8.43;;;4.50;99.90;;;;;;10292643;28;88975;-74
2020/12/17 07:57:32;;;;;;;75.27;38.07;;;4.50;99.90;;;;;;10294527;28;88804;-74
2020/12/17 08:02:37;;;;;;;126.77;71.37;;;4.50;99.90;;;;;;10292652;28;89111;-75
2020/12/17 08:07:39;;;;;;;34.07;8.27;;;4.50;99.90;;;;;;10274788;28;90190;-75
2020/12/17 08:12:43;;;;;;;47.17;22.10;;;4.50;99.90;;;;;;10291933;28;88861;-75
2020/12/17 08:17:48;;;;;;;20.60;6.67;;;4.50;99.90;;;;;;10293154;28;90363;-75
2020/12/17 08:22:50;;;;;;;73.53;43.43;;;4.50;99.90;;;;;;10295970;28;88576;-74
2020/12/17 08:27:52;;;;;;;257.63;164.63;;;4.40;99.90;;;;;;10293776;28;92188;-74
2020/12/17 08:32:55;;;;;;;118.73;65.07;;;4.40;99.90;;;;;;10290439;28;90296;-75
2020/12/17 08:37:57;;;;;;;33.17;18.30;;;4.50;99.90;;;;;;10288200;28;91422;-74
2020/12/17 08:43:10;;;;;;;22.13;6.20;;;4.50;99.90;;;;;;10293814;28;90057;-75
2020/12/17 08:48:19;;;;;;;28.87;10.10;;;4.60;99.90;;;;;;10296734;28;88936;-75
2020/12/17 08:53:21;;;;;;;17.43;6.03;;;4.60;99.90;;;;;;10292915;28;89041;-75
2020/12/17 08:58:23;;;;;;;54.17;28.33;;;4.60;99.90;;;;;;10297284;28;88674;-74
2020/12/17 09:03:26;;;;;;;106.80;56.40;;;4.70;99.90;;;;;;10291751;28;90476;-75
2020/12/17 09:08:28;;;;;;;22.80;7.80;;;4.80;99.90;;;;;;10293804;28;89229;-75
2020/12/17 09:13:30;;;;;;;232.47;132.63;;;5.00;99.90;;;;;;10290746;28;88337;-75
2020/12/17 09:18:32;;;;;;;110.10;60.10;;;5.20;99.90;;;;;;10287496;28;90182;-75
2020/12/17 09:23:34;;;;;;;92.73;41.93;;;5.30;99.90;;;;;;10291240;28;88970;-75
2020/12/17 09:28:36;;;;;;;28.03;8.70;;;5.30;99.90;;;;;;10287926;28;91835;-75
2020/12/17 09:33:38;;;;;;;23.20;8.10;;;5.40;99.90;;;;;;10300101;28;90338;-75
2020/12/17 09:38:40;;;;;;;23.57;7.07;;;5.50;99.90;;;;;;10293602;28;89003;-74
2020/12/17 09:43:53;;;;;;;21.50;7.60;;;5.50;99.90;;;;;;10270601;28;90620;-74
2020/12/17 09:48:59;;;;;;;25.87;9.40;;;5.60;99.90;;;;;;10293919;28;88777;-74
2020/12/17 09:54:02;;;;;;;24.30;8.27;;;5.60;99.90;;;;;;10292729;28;89009;-74
2020/12/17 09:59:06;;;;;;;27.07;8.07;;;5.60;99.90;;;;;;10270146;28;89670;-74
2020/12/17 10:04:09;;;;;;;29.53;9.10;;;5.60;99.90;;;;;;10292763;28;89757;-74
2020/12/17 10:09:10;;;;;;;21.70;7.03;;;5.60;99.90;;;;;;10291928;28;89711;-74
2020/12/17 10:14:14;;;;;;;28.10;8.23;;;5.60;99.90;;;;;;10292080;28;88713;-75
2020/12/17 10:19:18;;;;;;;22.90;7.53;;;5.50;99.90;;;;;;10289428;28;90002;-76
2020/12/17 10:24:19;;;;;;;28.70;7.83;;;5.60;99.90;;;;;;10290286;28;89807;-75
2020/12/17 10:29:21;;;;;;;29.17;9.43;;;5.70;99.90;;;;;;10290013;28;88840;-77
2020/12/17 10:34:24;;;;;;;23.20;7.80;;;5.80;99.90;;;;;;10309538;28;90252;-77
2020/12/17 10:39:25;;;;;;;30.00;8.17;;;5.90;99.90;;;;;;10298886;28;88989;-76
2020/12/17 10:44:27;;;;;;;32.97;9.67;;;6.10;99.90;;;;;;10298837;28;88953;-76
2020/12/17 10:49:29;;;;;;;26.27;8.57;;;6.20;99.90;;;;;;10297998;28;88755;-76
2020/12/17 10:54:31;;;;;;;22.87;7.80;;;6.30;99.90;;;;;;10299281;28;89558;-75
2020/12/17 10:59:32;;;;;;;27.37;7.97;;;6.30;99.90;;;;;;10296631;28;89046;-75
2020/12/17 11:04:35;;;;;;;30.93;9.23;;;6.40;99.90;;;;;;10298081;28;89151;-75
2020/12/17 11:09:36;;;;;;;23.37;8.87;;;6.50;99.90;;;;;;10296006;28;90179;-76
2020/12/17 11:14:38;;;;;;;23.23;8.03;;;6.60;99.90;;;;;;10296679;28;88922;-76
2020/12/17 11:19:40;;;;;;;29.20;9.13;;;6.80;99.90;;;;;;10317504;28;88874;-76
2020/12/17 11:24:42;;;;;;;27.70;8.37;;;6.90;99.90;;;;;;10297679;28;88822;-75
2020/12/17 11:29:44;;;;;;;32.20;8.60;;;7.00;99.90;;;;;;10301665;28;89423;-74
2020/12/17 11:34:46;;;;;;;25.90;8.67;;;7.00;99.90;;;;;;10296288;28;89110;-75
2020/12/17 11:39:48;;;;;;;29.33;9.47;;;7.00;99.90;;;;;;10273289;28;91932;-75
2020/12/17 11:44:49;;;;;;;27.27;8.60;;;7.00;99.90;;;;;;10295903;28;89170;-75
2020/12/17 11:49:52;;;;;;;34.03;10.33;;;7.10;99.90;;;;;;10298308;28;88664;-75
2020/12/17 11:54:53;;;;;;;32.73;9.43;;;7.10;99.90;;;;;;10294871;28;88744;-75
2020/12/17 11:59:55;;;;;;;28.43;9.03;;;7.20;99.90;;;;;;10295475;28;89788;-75
2020/12/17 12:04:57;;;;;;;27.67;9.57;;;7.20;99.90;;;;;;10294987;28;89629;-75
2020/12/17 12:09:59;;;;;;;28.50;8.83;;;7.30;99.90;;;;;;10294063;28;90254;-76
2020/12/17 12:15:01;;;;;;;26.53;8.40;;;7.30;99.90;;;;;;10339697;28;88932;-76
2020/12/17 12:20:03;;;;;;;30.30;10.47;;;7.30;99.90;;;;;;10340616;28;88006;-75
2020/12/17 12:25:05;;;;;;;31.07;9.23;;;7.40;99.90;;;;;;10335501;28;87662;-76
2020/12/17 12:30:07;;;;;;;27.97;8.60;;;7.60;99.90;;;;;;10339623;28;87578;-75
2020/12/17 12:35:11;;;;;;;31.33;10.23;;;7.70;99.90;;;;;;10344315;28;86832;-75
2020/12/17 12:40:12;;;;;;;30.10;9.73;;;7.80;99.90;;;;;;10340827;28;87868;-75
2020/12/17 12:45:14;;;;;;;27.63;9.07;;;7.90;99.90;;;;;;10343799;28;87798;-75
2020/12/17 12:50:19;;;;;;;24.77;8.40;;;8.10;99.90;;;;;;10329791;28;91451;-76
2020/12/17 12:55:21;;;;;;;31.10;9.63;;;8.20;99.90;;;;;;10341344;28;87689;-76
2020/12/17 13:00:23;;;;;;;32.10;10.53;;;8.20;99.90;;;;;;10342787;28;88136;-75
2020/12/17 13:05:27;;;;;;;25.80;8.50;;;8.50;99.90;;;;;;10329510;28;89629;-75
2020/12/17 13:10:29;;;;;;;32.90;10.40;;;8.60;99.90;;;;;;10344971;28;87679;-76
2020/12/17 13:15:31;;;;;;;28.30;9.67;;;8.80;99.90;;;;;;10337671;28;89583;-76
2020/12/17 13:20:35;;;;;;;34.93;10.20;;;9.10;99.90;;;;;;10336579;28;87972;-76
2020/12/17 13:25:37;;;;;;;28.97;9.83;;;9.10;99.90;;;;;;10320361;28;88737;-75
2020/12/17 13:30:39;;;;;;;30.27;10.40;;;9.20;99.90;;;;;;10337454;28;87801;-75
2020/12/17 13:35:41;;;;;;;27.87;9.93;;;9.10;99.90;;;;;;10338508;28;90498;-75
2020/12/17 13:40:43;;;;;;;29.50;10.73;;;9.20;99.90;;;;;;10341878;28;90095;-75
2020/12/17 13:45:44;;;;;;;30.83;10.17;;;9.30;99.90;;;;;;10339577;28;88048;-77
2020/12/17 13:50:47;;;;;;;31.00;10.37;;;9.20;99.90;;;;;;10339522;28;87937;-76
2020/12/17 13:55:48;;;;;;;30.40;10.40;;;9.10;99.90;;;;;;10339222;28;87813;-76
2020/12/17 14:00:50;;;;;;;24.80;8.23;;;9.00;99.90;;;;;;10339213;28;87778;-76
2020/12/17 14:05:53;;;;;;;31.60;9.93;;;8.90;99.90;;;;;;10340240;28;88232;-76
2020/12/17 14:10:54;;;;;;;31.10;10.33;;;8.70;99.90;;;;;;10346952;28;87002;-76
2020/12/17 14:15:56;;;;;;;29.43;9.17;;;8.60;99.90;;;;;;10341719;28;86866;-76
2020/12/17 14:20:58;;;;;;;31.30;10.00;;;8.40;99.90;;;;;;10346401;28;88337;-76
2020/12/17 14:26:00;;;;;;;28.53;10.93;;;8.30;99.90;;;;;;10339840;28;88108;-76
2020/12/17 14:31:02;;;;;;;30.23;9.50;;;8.30;99.90;;;;;;10339456;28;88743;-77
2020/12/17 14:36:07;;;;;;;27.87;8.63;;;8.10;99.90;;;;;;10347057;28;88055;-76
2020/12/17 14:41:09;;;;;;;25.03;8.97;;;8.00;99.90;;;;;;10345438;28;87473;-76
2020/12/17 14:46:10;;;;;;;26.37;8.97;;;7.80;99.90;;;;;;10348213;28;87885;-75
2020/12/17 14:51:16;;;;;;;30.00;10.07;;;7.80;99.90;;;;;;10335295;28;89447;-74
2020/12/17 14:56:18;;;;;;;23.07;7.47;;;7.80;99.90;;;;;;10344105;28;88001;-75
2020/12/17 15:01:20;;;;;;;23.30;8.47;;;7.80;99.90;;;;;;10346444;28;88039;-76
2020/12/17 15:06:22;;;;;;;33.37;11.10;;;7.70;99.90;;;;;;10343647;28;86939;-76
2020/12/17 15:11:24;;;;;;;30.57;9.80;;;7.70;99.90;;;;;;10343153;28;88502;-75
2020/12/17 15:16:26;;;;;;;27.93;9.57;;;7.60;99.90;;;;;;10345968;28;87559;-74
2020/12/17 15:21:28;;;;;;;26.67;9.50;;;7.50;99.90;;;;;;10347015;28;88616;-76
2020/12/17 15:26:30;;;;;;;24.70;8.07;;;7.50;99.90;;;;;;10345342;28;89216;-74
2020/12/17 15:31:32;;;;;;;145.10;93.47;;;7.30;99.90;;;;;;10346194;28;87689;-75
2020/12/17 15:36:34;;;;;;;28.47;8.90;;;7.20;99.90;;;;;;10334903;28;90207;-76
2020/12/17 15:41:36;;;;;;;32.63;10.10;;;7.00;99.90;;;;;;10343645;28;87567;-75
2020/12/17 15:46:39;;;;;;;77.27;45.63;;;6.70;99.90;;;;;;10325156;28;89316;-74
2020/12/17 15:51:41;;;;;;;38.53;11.20;;;6.60;99.90;;;;;;10342735;28;88207;-74
2020/12/17 15:56:45;;;;;;;279.97;226.20;;;6.40;99.90;;;;;;10338189;28;86832;-73
2020/12/17 16:01:47;;;;;;;180.60;106.93;;;6.30;99.90;;;;;;10344027;28;86996;-74
2020/12/17 16:06:50;;;;;;;420.17;346.33;;;6.10;99.90;;;;;;10339356;28;87587;-74
2020/12/17 16:11:52;;;;;;;103.67;54.27;;;6.00;99.90;;;;;;10341902;28;88588;-74
2020/12/17 16:16:54;;;;;;;27.80;9.13;;;5.90;99.90;;;;;;10347552;28;87868;-76
2020/12/17 16:21:56;;;;;;;28.80;8.60;;;5.80;99.90;;;;;;10339443;28;87774;-75
2020/12/17 16:26:58;;;;;;;25.63;8.80;;;5.70;99.90;;;;;;10343172;28;87645;-74
2020/12/17 16:32:06;;;;;;;25.03;8.67;;;5.70;99.90;;;;;;10342578;28;88181;-74
2020/12/17 16:37:09;;;;;;;29.37;9.63;;;5.50;99.90;;;;;;10338327;28;88000;-75
2020/12/17 16:42:10;;;;;;;24.07;8.67;;;5.50;99.90;;;;;;10343265;28;88307;-74
2020/12/17 16:47:12;;;;;;;26.17;8.87;;;5.40;99.90;;;;;;10345517;28;86746;-75
2020/12/17 16:52:14;;;;;;;27.50;8.60;;;5.30;99.90;;;;;;10343798;28;87737;-75
2020/12/17 16:57:16;;;;;;;28.20;8.77;;;5.30;99.90;;;;;;10341793;28;86932;-75
2020/12/17 17:02:18;;;;;;;25.57;8.40;;;5.20;99.90;;;;;;10336254;28;88563;-74
2020/12/17 17:07:21;;;;;;;24.17;8.10;;;5.10;99.90;;;;;;10328318;28;88889;-75
2020/12/17 17:12:22;;;;;;;24.33;8.07;;;5.00;99.90;;;;;;10345579;28;87613;-75
2020/12/17 17:17:26;;;;;;;29.07;9.50;;;4.90;99.90;;;;;;10325508;28;87552;-75
2020/12/17 17:22:28;;;;;;;37.47;12.60;;;4.80;99.90;;;;;;10344422;28;87495;-75
2020/12/17 17:27:30;;;;;;;23.07;9.07;;;4.80;99.90;;;;;;10342858;28;87539;-75
2020/12/17 17:32:32;;;;;;;32.77;12.03;;;4.70;99.90;;;;;;10343435;28;87526;-75
2020/12/17 17:37:34;;;;;;;35.53;17.30;;;4.60;99.90;;;;;;10342778;28;88783;-75
2020/12/17 17:42:36;;;;;;;29.23;11.90;;;4.50;99.90;;;;;;10354965;28;88125;-75
2020/12/17 17:47:38;;;;;;;34.70;12.33;;;4.50;99.90;;;;;;10352158;28;86966;-75
2020/12/17 17:52:43;;;;;;;28.40;11.77;;;4.50;99.90;;;;;;10358007;28;88827;-75
2020/12/17 17:57:44;;;;;;;32.63;12.70;;;4.40;99.90;;;;;;10359285;28;87796;-75
2020/12/17 18:02:46;;;;;;;36.17;20.47;;;4.30;99.90;;;;;;10353208;28;88238;-75
2020/12/17 18:07:49;;;;;;;328.17;271.40;;;4.20;99.90;;;;;;10356664;28;87639;-75
2020/12/17 18:12:50;;;;;;;32.03;17.90;;;4.10;99.90;;;;;;10329264;28;88121;-75
2020/12/17 18:17:52;;;;;;;34.23;14.20;;;4.10;99.90;;;;;;10358418;28;87667;-75
2020/12/17 18:22:54;;;;;;;27.47;12.73;;;4.00;99.90;;;;;;10356807;28;87948;-75
2020/12/17 18:27:56;;;;;;;34.97;17.77;;;4.00;99.90;;;;;;10357158;28;87090;-75
2020/12/17 18:32:59;;;;;;;24.40;10.20;;;3.90;99.90;;;;;;10350901;28;87610;-75
2020/12/17 18:38:02;;;;;;;29.77;8.53;;;3.90;99.90;;;;;;10352648;28;87994;-76
2020/12/17 18:43:04;;;;;;;26.73;10.30;;;3.90;99.90;;;;;;10353730;28;88708;-76
2020/12/17 18:48:06;;;;;;;39.27;17.87;;;4.00;99.90;;;;;;10357658;28;90012;-75
2020/12/17 18:53:11;;;;;;;36.63;17.50;;;4.00;99.90;;;;;;10353637;28;86992;-75
2020/12/17 18:58:12;;;;;;;31.57;14.63;;;3.90;99.90;;;;;;10346782;28;89267;-74
2020/12/17 19:03:14;;;;;;;41.20;18.47;;;3.80;99.90;;;;;;10349376;28;89488;-73
2020/12/17 19:08:17;;;;;;;49.00;26.00;;;3.70;99.90;;;;;;10324825;28;90193;-74
2020/12/17 19:13:18;;;;;;;100.93;57.80;;;3.70;99.90;;;;;;10320478;28;87619;-75
2020/12/17 19:18:20;;;;;;;389.07;256.43;;;3.70;99.90;;;;;;10345856;28;86765;-74
2020/12/17 19:23:22;;;;;;;734.33;606.27;;;3.70;99.90;;;;;;10340804;28;87726;-74
2020/12/17 19:28:24;;;;;;;224.47;129.60;;;3.50;99.90;;;;;;10346771;28;87618;-75
2020/12/17 19:33:26;;;;;;;111.43;55.73;;;3.50;99.90;;;;;;10344598;28;88518;-74
2020/12/17 19:38:30;;;;;;;141.90;74.93;;;3.60;99.90;;;;;;10343913;28;87629;-73
2020/12/17 19:43:32;;;;;;;192.63;97.13;;;3.60;99.90;;;;;;10350352;28;87314;-75
2020/12/17 19:48:34;;;;;;;252.07;145.10;;;3.80;99.90;;;;;;10346545;28;88151;-76
2020/12/17 19:53:40;;;;;;;369.10;199.37;;;3.90;99.90;;;;;;10347026;28;88866;-75
2020/12/17 19:58:41;;;;;;;111.07;61.63;;;3.90;99.90;;;;;;10345388;28;87827;-75
2020/12/17 20:03:43;;;;;;;90.90;47.87;;;3.80;99.90;;;;;;10344158;28;87598;-75
2020/12/17 20:08:46;;;;;;;224.50;127.37;;;3.80;99.90;;;;;;10355817;28;87321;-76
2020/12/17 20:13:47;;;;;;;469.27;284.97;;;3.80;99.90;;;;;;10336848;28;88638;-75
2020/12/17 20:18:49;;;;;;;388.40;215.47;;;3.80;99.90;;;;;;10336779;28;88265;-74
2020/12/17 20:23:52;;;;;;;159.77;70.60;;;3.90;99.90;;;;;;10342520;28;89629;-74
2020/12/17 20:28:55;;;;;;;301.37;160.13;;;3.80;99.90;;;;;;10338578;28;88732;-74
2020/12/17 20:33:57;;;;;;;702.13;505.50;;;3.90;99.90;;;;;;10328996;28;88325;-74
2020/12/17 20:39:01;;;;;;;385.03;199.83;;;3.90;99.90;;;;;;10314303;28;90041;-75
2020/12/17 20:44:04;;;;;;;782.33;629.37;;;4.00;99.90;;;;;;10336386;28;87915;-73
2020/12/17 20:49:06;;;;;;;433.23;252.40;;;4.10;99.90;;;;;;10325333;28;88933;-74
2020/12/17 20:54:09;;;;;;;515.00;325.73;;;4.20;99.90;;;;;;10316560;28;88852;-74
2020/12/17 20:59:10;;;;;;;879.27;714.50;;;4.20;99.90;;;;;;10327214;28;89003;-74
2020/12/17 21:04:15;;;;;;;835.80;701.20;;;4.30;99.90;;;;;;10316120;28;90751;-75
2020/12/17 21:09:17;;;;;;;897.83;703.60;;;4.20;99.90;;;;;;10334077;28;87541;-75
2020/12/17 21:14:19;;;;;;;933.73;716.00;;;4.10;99.90;;;;;;10327439;28;88533;-75
2020/12/17 21:19:21;;;;;;;903.77;728.37;;;4.00;99.90;;;;;;10342019;28;87777;-74
2020/12/17 21:24:23;;;;;;;812.70;671.53;;;3.90;99.90;;;;;;10341215;28;88508;-74
2020/12/17 21:29:25;;;;;;;769.80;629.20;;;3.90;99.90;;;;;;10339921;28;88810;-74
2020/12/17 21:34:28;;;;;;;541.33;354.03;;;3.80;99.90;;;;;;10346935;28;87944;-75
2020/12/17 21:39:30;;;;;;;97.70;56.40;;;3.90;99.90;;;;;;10345832;28;87923;-74
2020/12/17 21:44:32;;;;;;;47.17;21.40;;;3.90;99.90;;;;;;10343952;28;87474;-75
2020/12/17 21:49:34;;;;;;;147.80;44.17;;;3.90;99.90;;;;;;10339288;28;86655;-74
2020/12/17 21:54:37;;;;;;;132.57;50.63;;;3.90;99.90;;;;;;10337802;28;88749;-74
2020/12/17 21:59:38;;;;;;;119.23;49.50;;;3.90;99.90;;;;;;10339254;28;88624;-74
2020/12/17 22:04:40;;;;;;;135.27;65.83;;;4.00;99.90;;;;;;10338314;28;88582;-74
2020/12/17 22:09:43;;;;;;;202.57;96.67;;;4.00;99.90;;;;;;10336631;28;88333;-74
2020/12/17 22:14:46;;;;;;;579.87;455.80;;;4.00;99.90;;;;;;10338071;28;87215;-73
2020/12/17 22:19:48;;;;;;;811.07;685.67;;;4.10;99.90;;;;;;10329716;28;89360;-73
2020/12/17 22:24:50;;;;;;;981.63;805.50;;;4.10;99.90;;;;;;10328117;28;87691;-74
2020/12/17 22:29:53;;;;;;;837.77;718.43;;;4.20;99.90;;;;;;10336291;28;87872;-74
2020/12/17 22:34:57;;;;;;;660.13;540.87;;;4.20;99.90;;;;;;10343378;28;88074;-74
2020/12/17 22:40:00;;;;;;;841.77;755.60;;;4.20;99.90;;;;;;10341047;28;88923;-74
2020/12/17 22:45:01;;;;;;;888.37;798.43;;;4.10;99.90;;;;;;10343676;28;88125;-74
2020/12/17 22:50:05;;;;;;;911.60;792.90;;;4.20;99.90;;;;;;10341291;28;87573;-74
2020/12/17 22:55:07;;;;;;;711.70;638.87;;;4.10;99.90;;;;;;10336624;28;88899;-74
2020/12/17 23:00:12;;;;;;;863.57;774.03;;;4.30;99.90;;;;;;10346969;28;87621;-74
2020/12/17 23:05:14;;;;;;;815.67;727.83;;;4.10;99.90;;;;;;10339898;28;88606;-75
2020/12/17 23:10:17;;;;;;;796.53;676.30;;;4.10;99.90;;;;;;10340169;28;87185;-74
2020/12/17 23:15:18;;;;;;;887.27;797.10;;;4.10;99.90;;;;;;10349282;28;87665;-75
2020/12/17 23:20:20;;;;;;;385.23;310.33;;;4.20;99.90;;;;;;10343937;28;87620;-75
2020/12/17 23:25:23;;;;;;;791.17;708.27;;;4.20;99.90;;;;;;10342249;28;87597;-75
2020/12/17 23:30:24;;;;;;;746.97;670.70;;;4.20;99.90;;;;;;10327397;28;88575;-74
2020/12/17 23:35:29;;;;;;;731.13;654.67;;;4.20;99.90;;;;;;10348629;28;87606;-74
2020/12/17 23:40:31;;;;;;;986.77;809.93;;;4.20;99.90;;;;;;10340960;28;87567;-74
2020/12/17 23:45:33;;;;;;;973.00;795.10;;;4.20;99.90;;;;;;10327596;28;90462;-74
2020/12/17 23:50:34;;;;;;;928.70;802.73;;;4.20;99.90;;;;;;10325682;28;88250;-73
2020/12/17 23:55:37;;;;;;;882.70;794.73;;;4.10;99.90;;;;;;10348606;28;87723;-73
